Time;durP1;ratioP1;P1;durP2;ratioP2;P2;SDS_P1;SDS_P2;PMS_P1;PMS_P2;Temp;Humidity;BMP_temperature;BMP_pressure;BME280_temperature;BME280_humidity;BME280_pressure;Samples;Min_cycle;Max_cycle;Signal;HPM_P1;HPM_P2
2023/03/02 00:01:29;;;;;;;25.02;13.43;;;3.20;99.90;;;;;;5060009;28;20512;-77
2023/03/02 00:03:57;;;;;;;22.00;13.02;;;3.10;99.90;;;;;;5075446;28;20062;-79
2023/03/02 00:06:25;;;;;;;24.17;13.55;;;3.20;99.90;;;;;;5075828;28;20045;-77
2023/03/02 00:08:51;;;;;;;24.27;13.52;;;3.10;99.90;;;;;;5060131;28;20783;-79
2023/03/02 00:11:17;;;;;;;23.50;13.38;;;3.00;99.90;;;;;;5079811;28;20075;-77
2023/03/02 00:13:43;;;;;;;22.15;12.77;;;3.10;99.90;;;;;;5047021;28;20040;-77
2023/03/02 00:16:09;;;;;;;21.55;13.20;;;3.10;99.90;;;;;;5062360;28;20056;-76
2023/03/02 00:18:34;;;;;;;21.38;12.98;;;3.10;99.90;;;;;;5063517;28;20056;-77
2023/03/02 00:21:00;;;;;;;23.98;13.40;;;3.10;99.90;;;;;;5077698;28;20045;-77
2023/03/02 00:23:26;;;;;;;25.45;14.73;;;3.10;99.90;;;;;;5080202;28;20138;-77
2023/03/02 00:25:52;;;;;;;25.60;13.82;;;3.10;99.90;;;;;;5062221;28;20147;-78
2023/03/02 00:28:17;;;;;;;24.98;14.18;;;3.00;99.90;;;;;;5079708;28;20048;-78
2023/03/02 00:30:43;;;;;;;23.77;13.45;;;3.00;99.90;;;;;;5079410;28;20139;-77
2023/03/02 00:33:09;;;;;;;25.98;14.45;;;3.00;99.90;;;;;;5078635;28;20036;-78
2023/03/02 00:35:39;;;;;;;24.70;13.50;;;3.00;99.90;;;;;;5080112;28;20048;-78
2023/03/02 00:38:06;;;;;;;28.50;14.52;;;3.00;99.90;;;;;;5078145;28;20091;-79
2023/03/02 00:40:32;;;;;;;24.85;13.43;;;3.00;99.90;;;;;;5079783;28;20086;-76
2023/03/02 00:42:58;;;;;;;24.00;13.65;;;3.00;99.90;;;;;;5078248;28;20049;-76
2023/03/02 00:45:24;;;;;;;23.55;13.13;;;3.00;99.90;;;;;;5079280;28;20051;-78
2023/03/02 00:47:50;;;;;;;24.27;13.88;;;3.00;99.90;;;;;;5045816;28;20045;-78
2023/03/02 00:50:15;;;;;;;23.83;13.95;;;3.00;99.90;;;;;;5078016;28;20041;-79
2023/03/02 00:52:41;;;;;;;26.45;14.57;;;2.90;99.90;;;;;;5063063;28;20044;-77
2023/03/02 00:55:08;;;;;;;25.40;13.40;;;2.90;99.90;;;;;;5044513;28;20145;-76
2023/03/02 00:57:34;;;;;;;26.95;14.65;;;2.90;99.90;;;;;;5063146;28;20103;-76
2023/03/02 01:00:00;;;;;;;24.17;13.77;;;2.90;99.90;;;;;;5078004;28;20094;-77
2023/03/02 01:02:26;;;;;;;23.55;13.25;;;2.90;99.90;;;;;;5062100;28;20067;-79
2023/03/02 01:04:54;;;;;;;24.25;13.63;;;3.20;99.90;;;;;;5061730;28;20143;-77
2023/03/02 01:07:21;;;;;;;22.65;12.55;;;2.90;99.90;;;;;;5062033;28;20079;-77
2023/03/02 01:09:49;;;;;;;25.15;13.82;;;3.00;99.90;;;;;;5079341;28;20052;-77
2023/03/02 01:12:15;;;;;;;24.42;13.02;;;2.90;99.90;;;;;;5077625;28;20079;-77
2023/03/02 01:14:45;;;;;;;23.90;13.98;;;2.80;99.90;;;;;;5079746;28;20056;-78
2023/03/02 01:17:12;;;;;;;21.30;12.07;;;2.90;99.90;;;;;;5077900;28;20722;-79
2023/03/02 01:19:39;;;;;;;21.90;12.05;;;2.90;99.90;;;;;;5078638;28;20049;-79
2023/03/02 01:22:05;;;;;;;23.52;13.20;;;2.80;99.90;;;;;;5078001;28;20413;-77
2023/03/02 01:24:32;;;;;;;21.17;11.68;;;2.70;99.90;;;;;;5078082;28;20075;-78
2023/03/02 01:26:58;;;;;;;22.90;12.57;;;2.70;99.90;;;;;;5079088;28;20044;-82
2023/03/02 01:29:24;;;;;;;22.02;11.73;;;2.70;99.90;;;;;;5077236;28;20229;-77
2023/03/02 01:31:49;;;;;;;21.67;12.85;;;2.90;99.90;;;;;;5079150;28;20104;-78
2023/03/02 01:34:15;;;;;;;24.45;13.32;;;2.60;99.90;;;;;;5060364;28;20045;-77
2023/03/02 01:36:44;;;;;;;20.83;12.57;;;2.60;99.90;;;;;;5078420;28;20051;-78
2023/03/02 01:39:16;;;;;;;23.95;13.38;;;2.60;99.90;;;;;;5045133;28;20104;-77
2023/03/02 01:41:43;;;;;;;21.52;11.93;;;2.50;99.90;;;;;;5077493;28;20044;-78
2023/03/02 01:44:33;;;;;;;24.67;13.68;;;2.50;99.90;;;;;;5078647;28;20111;-78
2023/03/02 01:47:00;;;;;;;20.50;12.15;;;2.50;99.90;;;;;;5051430;28;20072;-77
2023/03/02 01:49:26;;;;;;;23.58;13.23;;;2.50;99.90;;;;;;5078502;28;20044;-78
2023/03/02 01:51:52;;;;;;;22.05;12.65;;;2.50;99.90;;;;;;5077234;28;20072;-77
2023/03/02 01:54:21;;;;;;;21.77;12.75;;;2.50;99.90;;;;;;5061021;28;20052;-81
2023/03/02 01:56:51;;;;;;;21.92;11.75;;;2.50;99.90;;;;;;5078109;28;20044;-78
2023/03/02 01:59:20;;;;;;;21.17;12.00;;;2.50;99.90;;;;;;5076436;28;20048;-78
2023/03/02 02:01:52;;;;;;;20.85;11.52;;;2.40;99.90;;;;;;5078465;28;20082;-79
2023/03/02 02:04:20;;;;;;;18.30;11.13;;;2.40;99.90;;;;;;5077051;28;20064;-77
2023/03/02 02:07:15;;;;;;;19.98;10.73;;;2.30;99.90;;;;;;5077789;28;20045;-77
2023/03/02 02:09:50;;;;;;;19.52;11.05;;;2.30;99.90;;;;;;5065380;28;20193;-77
2023/03/02 02:12:19;;;;;;;18.48;10.80;;;2.30;99.90;;;;;;5076064;28;20044;-76
2023/03/02 02:14:46;;;;;;;21.75;12.00;;;2.30;99.90;;;;;;5078380;28;20041;-76
2023/03/02 02:17:13;;;;;;;20.13;12.38;;;2.30;99.90;;;;;;5043843;28;20611;-77
2023/03/02 02:19:44;;;;;;;20.50;12.00;;;2.30;99.90;;;;;;5077751;28;20070;-77
2023/03/02 02:22:10;;;;;;;22.58;12.43;;;2.30;99.90;;;;;;5077206;28;20056;-76
2023/03/02 02:24:49;;;;;;;17.95;10.80;;;2.30;99.90;;;;;;5078015;28;20048;-76
2023/03/02 02:27:15;;;;;;;20.73;11.23;;;2.40;99.90;;;;;;5078074;28;20066;-76
2023/03/02 02:29:48;;;;;;;19.58;11.15;;;2.40;99.90;;;;;;5076141;28;20071;-76
2023/03/02 02:32:20;;;;;;;19.15;11.60;;;2.30;99.90;;;;;;5078819;28;20085;-76
2023/03/02 02:34:55;;;;;;;21.60;12.13;;;2.40;99.90;;;;;;5060392;28;20837;-77
2023/03/02 02:37:37;;;;;;;22.77;12.05;;;2.30;99.90;;;;;;5076554;28;20049;-76
2023/03/02 02:40:08;;;;;;;23.52;14.68;;;2.30;99.90;;;;;;5077416;28;20057;-77
2023/03/02 02:42:39;;;;;;;19.73;11.32;;;2.30;99.90;;;;;;5075706;28;20517;-78
2023/03/02 02:45:16;;;;;;;20.35;11.68;;;2.30;99.90;;;;;;5060806;28;20044;-78
2023/03/02 02:47:42;;;;;;;21.35;11.95;;;2.30;99.90;;;;;;5076820;28;20074;-78
2023/03/02 02:50:20;;;;;;;24.15;12.40;;;2.30;99.90;;;;;;5076422;28;20139;-77
2023/03/02 02:52:50;;;;;;;18.98;10.85;;;2.30;99.90;;;;;;5077983;28;20875;-76
2023/03/02 02:55:20;;;;;;;21.85;11.60;;;2.30;99.90;;;;;;5075686;28;20516;-77
2023/03/02 02:57:46;;;;;;;23.80;12.35;;;2.40;99.90;;;;;;5077831;28;20048;-77
2023/03/02 03:00:18;;;;;;;24.23;12.23;;;2.40;99.90;;;;;;5077926;28;20045;-77
2023/03/02 03:02:48;;;;;;;26.35;12.43;;;2.20;99.90;;;;;;5076454;28;20086;-78
2023/03/02 03:05:15;;;;;;;20.55;11.20;;;2.20;99.90;;;;;;5077199;28;20090;-77
2023/03/02 03:07:41;;;;;;;24.92;12.27;;;2.20;99.90;;;;;;5059044;28;20052;-78
2023/03/02 03:10:24;;;;;;;21.55;11.65;;;2.20;99.90;;;;;;5078120;28;20052;-78
2023/03/02 03:12:50;;;;;;;20.52;10.90;;;2.20;99.90;;;;;;5076153;28;20044;-77
2023/03/02 03:15:16;;;;;;;22.55;12.65;;;2.70;99.90;;;;;;5076765;28;20094;-78
2023/03/02 03:17:56;;;;;;;26.40;12.30;;;2.10;99.90;;;;;;5076466;28;20049;-77
2023/03/02 03:20:25;;;;;;;24.90;13.32;;;2.10;99.90;;;;;;5075772;28;20083;-77
2023/03/02 03:22:53;;;;;;;22.92;12.52;;;2.10;99.90;;;;;;5077598;28;20131;-76
2023/03/02 03:25:20;;;;;;;22.00;12.15;;;2.10;99.90;;;;;;5075663;28;20059;-76
2023/03/02 03:27:46;;;;;;;24.90;12.43;;;2.10;99.90;;;;;;5077554;28;20040;-77
2023/03/02 03:30:13;;;;;;;26.92;12.45;;;2.10;99.90;;;;;;5042971;28;20408;-78
2023/03/02 03:32:40;;;;;;;23.95;11.73;;;2.10;99.90;;;;;;5043598;28;20447;-78
2023/03/02 03:35:11;;;;;;;20.35;10.82;;;2.00;99.90;;;;;;5077146;28;20036;-78
2023/03/02 03:37:39;;;;;;;23.52;12.20;;;2.00;99.90;;;;;;5075908;28;20102;-77
2023/03/02 03:40:08;;;;;;;25.88;11.55;;;2.60;99.90;;;;;;5077736;28;20115;-78
2023/03/02 03:42:35;;;;;;;25.80;12.07;;;2.00;99.90;;;;;;5059042;28;20045;-78
2023/03/02 03:45:01;;;;;;;24.30;11.77;;;2.00;99.90;;;;;;5080666;28;20096;-76
2023/03/02 03:47:26;;;;;;;27.23;12.50;;;2.00;99.90;;;;;;5063442;28;20090;-76
2023/03/02 03:49:52;;;;;;;31.23;12.27;;;2.10;99.90;;;;;;5080182;28;20522;-77
2023/03/02 03:52:29;;;;;;;31.77;12.15;;;1.90;99.90;;;;;;5080386;28;20041;-76
2023/03/02 03:54:59;;;;;;;45.25;13.20;;;1.90;99.90;;;;;;5078989;28;20072;-76
2023/03/02 03:57:26;;;;;;;44.40;12.48;;;2.00;99.90;;;;;;5064378;28;20097;-76
2023/03/02 03:59:52;;;;;;;64.47;15.80;;;1.80;99.90;;;;;;5079028;28;20049;-76
2023/03/02 04:02:18;;;;;;;32.42;13.00;;;1.80;99.90;;;;;;5063580;28;20147;-77
2023/03/02 04:04:45;;;;;;;32.90;12.75;;;1.80;99.90;;;;;;5080175;28;20056;-78
2023/03/02 04:07:12;;;;;;;36.83;13.90;;;1.80;99.90;;;;;;5079582;28;20056;-78
2023/03/02 04:09:38;;;;;;;34.30;13.25;;;1.80;99.90;;;;;;5063738;28;20044;-77
2023/03/02 04:12:05;;;;;;;37.60;13.18;;;1.70;99.90;;;;;;5078931;28;20054;-76
2023/03/02 04:14:31;;;;;;;32.03;13.23;;;1.70;99.90;;;;;;5080736;28;20500;-76
2023/03/02 04:16:56;;;;;;;40.50;14.25;;;1.70;99.90;;;;;;5062049;28;20054;-76
2023/03/02 04:19:22;;;;;;;40.63;15.75;;;1.70;99.90;;;;;;5080499;28;20141;-77
2023/03/02 04:21:51;;;;;;;38.25;14.48;;;1.70;99.90;;;;;;5062328;28;20052;-76
2023/03/02 04:24:18;;;;;;;46.10;14.00;;;1.70;99.90;;;;;;5079683;28;20619;-76
2023/03/02 04:26:45;;;;;;;41.78;14.95;;;1.70;99.90;;;;;;5079899;28;20114;-75
2023/03/02 04:29:12;;;;;;;34.38;13.60;;;1.70;99.90;;;;;;5078067;28;20052;-77
2023/03/02 04:31:38;;;;;;;40.78;14.52;;;1.70;99.90;;;;;;5080113;28;20044;-76
2023/03/02 04:34:06;;;;;;;37.58;14.35;;;1.70;99.90;;;;;;5077933;28;20090;-76
2023/03/02 04:36:34;;;;;;;43.45;15.10;;;1.80;99.90;;;;;;5079562;28;20047;-76
2023/03/02 04:39:00;;;;;;;44.90;17.27;;;1.70;99.90;;;;;;5062353;28;20040;-76
2023/03/02 04:41:25;;;;;;;49.15;16.00;;;1.70;99.90;;;;;;5079264;28;20044;-78
2023/03/02 04:43:51;;;;;;;48.10;16.65;;;1.70;99.90;;;;;;5079609;28;20048;-76
2023/03/02 04:46:24;;;;;;;47.75;16.38;;;1.70;99.90;;;;;;5045001;28;20056;-75
2023/03/02 04:48:50;;;;;;;40.40;15.77;;;1.80;99.90;;;;;;5080194;28;20064;-76
2023/03/02 04:51:26;;;;;;;35.80;15.30;;;1.80;99.90;;;;;;5079232;28;20048;-76
2023/03/02 04:54:07;;;;;;;48.72;15.70;;;1.80;99.90;;;;;;5078876;28;20048;-76
2023/03/02 04:56:33;;;;;;;61.05;17.40;;;1.80;99.90;;;;;;5079493;28;20056;-76
2023/03/02 04:58:59;;;;;;;46.92;16.13;;;1.90;99.90;;;;;;5061299;28;20045;-77
2023/03/02 05:01:25;;;;;;;62.83;16.85;;;1.90;99.90;;;;;;5079480;28;20098;-77
2023/03/02 05:03:51;;;;;;;47.55;15.15;;;2.10;99.90;;;;;;5078062;28;20049;-76
2023/03/02 05:06:20;;;;;;;54.05;17.52;;;1.70;99.90;;;;;;5062943;28;20051;-76
2023/03/02 05:08:46;;;;;;;54.97;16.83;;;1.70;99.90;;;;;;5062018;28;20036;-76
2023/03/02 05:11:32;;;;;;;39.70;15.70;;;1.90;99.90;;;;;;5078554;28;20051;-77
2023/03/02 05:14:00;;;;;;;55.00;15.13;;;1.80;99.90;;;;;;5079277;28;20087;-76
2023/03/02 05:16:28;;;;;;;69.18;18.20;;;1.80;99.90;;;;;;5077465;28;20044;-76
2023/03/02 05:18:54;;;;;;;36.20;14.38;;;1.90;99.90;;;;;;5079639;28;20053;-76
2023/03/02 05:21:21;;;;;;;52.95;17.77;;;1.70;99.90;;;;;;5077553;28;20063;-76
2023/03/02 05:23:46;;;;;;;46.30;14.80;;;2.00;99.90;;;;;;5078774;28;20037;-76
2023/03/02 05:26:13;;;;;;;54.45;15.23;;;1.70;99.90;;;;;;5078333;28;20896;-76
2023/03/02 05:28:39;;;;;;;56.33;15.35;;;1.90;99.90;;;;;;5061463;28;20036;-76
2023/03/02 05:31:05;;;;;;;46.45;15.50;;;1.70;99.90;;;;;;5062140;28;20101;-76
2023/03/02 05:33:31;;;;;;;46.80;15.27;;;1.60;99.90;;;;;;5077302;28;20056;-78
2023/03/02 05:35:57;;;;;;;57.90;16.35;;;1.80;99.90;;;;;;5080541;28;20048;-77
2023/03/02 05:38:23;;;;;;;49.33;16.70;;;1.60;99.90;;;;;;5060614;28;20044;-76
2023/03/02 05:40:49;;;;;;;47.25;14.50;;;1.60;99.90;;;;;;5062030;28;20048;-78
2023/03/02 05:43:20;;;;;;;50.15;15.93;;;1.60;99.90;;;;;;5078001;28;20048;-77
2023/03/02 05:45:46;;;;;;;46.85;16.40;;;1.60;99.90;;;;;;5077317;28;20053;-78
2023/03/02 05:48:13;;;;;;;41.80;14.27;;;1.60;99.90;;;;;;5045222;28;20087;-78
2023/03/02 05:50:39;;;;;;;41.80;14.75;;;1.90;99.90;;;;;;5076475;28;20515;-76
2023/03/02 05:53:05;;;;;;;40.33;15.80;;;1.70;99.90;;;;;;5078831;28;20079;-77
2023/03/02 05:55:35;;;;;;;49.83;15.23;;;1.50;99.90;;;;;;5060679;28;20044;-77
2023/03/02 05:58:10;;;;;;;52.30;15.27;;;1.50;99.90;;;;;;5077960;28;20056;-75
2023/03/02 06:00:36;;;;;;;43.30;15.63;;;1.50;99.90;;;;;;5062444;28;20458;-76
2023/03/02 06:03:02;;;;;;;44.05;14.32;;;1.50;99.90;;;;;;5077368;28;20055;-76
2023/03/02 06:05:27;;;;;;;57.33;16.52;;;1.50;99.90;;;;;;5077750;28;20492;-75
2023/03/02 06:07:53;;;;;;;79.85;17.67;;;1.50;99.90;;;;;;5059703;28;20056;-77
2023/03/02 06:10:19;;;;;;;55.45;15.50;;;1.80;99.90;;;;;;5078428;28;20075;-75
2023/03/02 06:12:45;;;;;;;46.45;15.38;;;2.20;99.90;;;;;;5076812;28;20052;-75
2023/03/02 06:15:10;;;;;;;43.25;14.32;;;1.60;99.90;;;;;;5060982;28;20040;-75
2023/03/02 06:17:36;;;;;;;52.50;14.85;;;1.60;99.90;;;;;;5077303;28;20044;-76
2023/03/02 06:20:06;;;;;;;50.15;13.93;;;1.80;99.90;;;;;;5076841;28;20076;-76
2023/03/02 06:22:32;;;;;;;49.53;14.43;;;1.50;99.90;;;;;;5077989;28;20052;-76
2023/03/02 06:24:58;;;;;;;32.67;12.95;;;1.60;99.90;;;;;;5059416;28;20074;-76
2023/03/02 06:27:23;;;;;;;41.55;14.57;;;1.60;99.90;;;;;;5079682;28;20052;-75
2023/03/02 06:29:49;;;;;;;30.17;12.90;;;1.50;99.90;;;;;;5043277;28;20087;-77
2023/03/02 06:32:15;;;;;;;40.20;13.90;;;1.50;99.90;;;;;;5077616;28;20037;-76
2023/03/02 06:34:40;;;;;;;38.83;13.57;;;1.50;99.90;;;;;;5077845;28;20051;-75
2023/03/02 06:37:06;;;;;;;50.20;14.65;;;1.50;99.90;;;;;;5075790;28;20097;-76
2023/03/02 06:39:32;;;;;;;38.38;13.25;;;1.50;99.90;;;;;;5043634;28;20052;-76
2023/03/02 06:41:59;;;;;;;31.23;12.95;;;1.50;99.90;;;;;;5075730;28;20068;-75
2023/03/02 06:44:24;;;;;;;54.25;14.50;;;1.60;99.90;;;;;;5061082;28;20052;-76
2023/03/02 06:46:50;;;;;;;56.35;14.10;;;1.60;99.90;;;;;;5059119;28;20133;-76
2023/03/02 06:49:16;;;;;;;40.72;13.75;;;1.60;99.90;;;;;;5077338;28;20058;-76
2023/03/02 06:51:41;;;;;;;35.85;13.02;;;1.60;99.90;;;;;;5075929;28;20393;-77
2023/03/02 06:54:07;;;;;;;33.70;13.63;;;1.60;99.90;;;;;;5077075;28;20045;-76
2023/03/02 06:56:33;;;;;;;37.25;13.52;;;1.60;99.90;;;;;;5077058;28;20055;-76
2023/03/02 06:58:59;;;;;;;31.45;12.55;;;1.70;99.90;;;;;;5059421;28;20056;-78
2023/03/02 07:01:25;;;;;;;31.10;13.73;;;1.60;99.90;;;;;;5077796;28;20067;-75
2023/03/02 07:03:50;;;;;;;33.45;12.05;;;1.60;99.90;;;;;;5077041;28;20060;-76
2023/03/02 07:06:16;;;;;;;35.35;14.63;;;1.60;99.90;;;;;;5060719;28;20044;-78
2023/03/02 07:08:42;;;;;;;23.98;11.43;;;1.80;99.90;;;;;;5059645;28;20041;-76
2023/03/02 07:11:10;;;;;;;41.42;13.27;;;1.70;99.90;;;;;;5076396;28;20111;-78
2023/03/02 07:13:39;;;;;;;32.78;13.38;;;1.60;99.90;;;;;;5076895;28;20044;-77
2023/03/02 07:16:13;;;;;;;52.05;12.90;;;1.60;99.90;;;;;;5059259;28;20135;-75
2023/03/02 07:18:39;;;;;;;27.98;12.15;;;1.70;99.90;;;;;;5064284;28;20070;-76
2023/03/02 07:21:05;;;;;;;30.70;12.25;;;1.60;99.90;;;;;;5079184;28;20068;-78
2023/03/02 07:23:31;;;;;;;37.33;13.07;;;1.60;99.90;;;;;;5081575;28;20167;-77
2023/03/02 07:25:57;;;;;;;27.13;12.23;;;1.80;99.90;;;;;;5080591;28;20107;-77
2023/03/02 07:28:24;;;;;;;37.75;12.25;;;1.60;99.90;;;;;;5063771;28;20052;-77
2023/03/02 07:30:53;;;;;;;32.35;12.50;;;1.60;99.90;;;;;;5080828;28;20048;-78
2023/03/02 07:33:20;;;;;;;33.10;12.85;;;1.60;99.90;;;;;;5079580;28;20075;-77
2023/03/02 07:35:45;;;;;;;31.70;12.23;;;1.60;99.90;;;;;;5082802;28;20048;-80
2023/03/02 07:38:11;;;;;;;39.25;13.77;;;1.60;99.90;;;;;;5062815;28;20044;-77
2023/03/02 07:40:40;;;;;;;35.55;12.57;;;1.60;99.90;;;;;;5082473;28;20055;-76
2023/03/02 07:43:06;;;;;;;39.15;13.18;;;1.60;99.90;;;;;;5079862;28;20139;-78
2023/03/02 07:45:32;;;;;;;28.73;13.27;;;1.70;99.90;;;;;;5080317;28;20552;-77
2023/03/02 07:47:58;;;;;;;32.35;13.13;;;1.50;99.90;;;;;;5080629;28;20045;-79
2023/03/02 07:50:24;;;;;;;28.70;12.43;;;1.90;99.90;;;;;;5078968;28;20058;-76
2023/03/02 07:52:50;;;;;;;35.17;19.75;;;1.60;99.90;;;;;;5081212;28;20044;-76
2023/03/02 07:55:15;;;;;;;25.48;11.27;;;1.80;99.90;;;;;;5078942;28;20079;-76
2023/03/02 07:57:41;;;;;;;28.90;12.70;;;1.70;99.90;;;;;;5080806;28;20053;-76
2023/03/02 08:00:08;;;;;;;30.83;11.82;;;1.70;99.90;;;;;;5063052;28;20044;-75
2023/03/02 08:02:33;;;;;;;41.55;12.52;;;1.80;99.90;;;;;;5079706;28;20063;-76
2023/03/02 08:04:59;;;;;;;26.42;12.15;;;1.80;99.90;;;;;;5080064;28;20463;-75
2023/03/02 08:07:25;;;;;;;35.40;12.05;;;1.80;99.90;;;;;;5078682;28;20048;-80
2023/03/02 08:09:50;;;;;;;29.10;11.40;;;1.90;99.90;;;;;;5059093;28;20594;-75
2023/03/02 08:12:16;;;;;;;27.70;11.77;;;1.90;99.90;;;;;;5056842;28;20072;-76
2023/03/02 08:14:42;;;;;;;32.28;11.32;;;2.10;99.90;;;;;;5059674;28;20049;-76
2023/03/02 08:17:08;;;;;;;22.70;10.65;;;2.00;99.90;;;;;;5072736;28;20074;-75
2023/03/02 08:19:33;;;;;;;30.88;10.90;;;2.00;99.90;;;;;;5062141;28;20044;-77
2023/03/02 08:22:00;;;;;;;22.52;10.98;;;1.90;99.90;;;;;;5061954;28;20037;-77
2023/03/02 08:24:26;;;;;;;29.05;10.68;;;1.90;99.90;;;;;;5045341;28;20048;-75
2023/03/02 08:26:52;;;;;;;26.00;10.32;;;1.90;99.90;;;;;;5080177;28;20063;-75
2023/03/02 08:29:18;;;;;;;21.60;10.88;;;1.90;99.90;;;;;;5060574;28;20063;-76
2023/03/02 08:31:44;;;;;;;21.70;10.77;;;1.40;99.90;;;;;;5079501;28;20039;-76
2023/03/02 08:34:10;;;;;;;22.65;11.27;;;2.00;99.90;;;;;;5061162;28;20040;-75
2023/03/02 08:36:36;;;;;;;24.33;10.70;;;2.00;99.90;;;;;;5079106;28;20040;-75
2023/03/02 08:39:01;;;;;;;19.70;10.70;;;2.00;99.90;;;;;;5045456;28;20053;-75
2023/03/02 08:41:27;;;;;;;22.15;10.20;;;2.20;99.90;;;;;;5078080;28;20546;-75
2023/03/02 08:43:54;;;;;;;21.80;10.75;;;2.10;99.90;;;;;;5079386;28;20530;-74
2023/03/02 08:46:20;;;;;;;20.63;10.30;;;2.10;99.90;;;;;;5077850;28;20060;-75
2023/03/02 08:48:47;;;;;;;20.00;9.90;;;2.10;99.90;;;;;;5079340;28;20059;-74
2023/03/02 08:51:16;;;;;;;21.70;10.05;;;2.40;99.90;;;;;;5060521;28;20043;-75
2023/03/02 08:53:44;;;;;;;26.95;10.35;;;2.10;99.90;;;;;;5079199;28;20049;-74
2023/03/02 08:56:31;;;;;;;24.67;9.90;;;2.10;99.90;;;;;;5078320;28;20885;-74
2023/03/02 08:59:03;;;;;;;18.10;9.02;;;2.20;99.90;;;;;;5078924;28;20136;-74
2023/03/02 09:01:32;;;;;;;20.55;9.57;;;2.20;99.90;;;;;;5078397;28;20058;-74
2023/03/02 09:03:59;;;;;;;19.75;10.82;;;2.20;99.90;;;;;;5076893;28;20064;-74
2023/03/02 09:06:26;;;;;;;22.17;10.43;;;2.30;99.90;;;;;;5080305;28;20033;-75
2023/03/02 09:08:52;;;;;;;19.40;10.13;;;2.50;99.90;;;;;;5077951;28;20064;-74
2023/03/02 09:11:18;;;;;;;25.92;9.82;;;2.40;99.90;;;;;;5077824;28;20488;-75
2023/03/02 09:13:44;;;;;;;27.35;10.70;;;2.40;99.90;;;;;;5078597;28;20594;-74
2023/03/02 09:16:10;;;;;;;18.17;9.73;;;2.40;99.90;;;;;;5076449;28;20066;-74
2023/03/02 09:18:36;;;;;;;18.45;10.38;;;2.50;99.90;;;;;;5079226;28;20619;-75
2023/03/02 09:21:03;;;;;;;19.58;10.88;;;2.60;99.90;;;;;;5076406;28;20083;-74
2023/03/02 09:23:30;;;;;;;18.67;10.48;;;2.60;99.90;;;;;;5078449;28;20089;-75
2023/03/02 09:25:56;;;;;;;20.42;10.38;;;2.70;99.90;;;;;;5060966;28;20785;-75
2023/03/02 09:28:22;;;;;;;18.50;10.93;;;2.70;99.90;;;;;;5077696;28;20044;-75
2023/03/02 09:31:07;;;;;;;19.55;10.52;;;2.80;99.90;;;;;;5078451;28;20048;-74
2023/03/02 09:33:34;;;;;;;17.58;10.27;;;2.80;99.90;;;;;;5076695;28;20048;-75
2023/03/02 09:36:03;;;;;;;21.80;10.98;;;2.80;99.90;;;;;;5078948;28;20071;-75
2023/03/02 09:38:29;;;;;;;21.20;11.25;;;2.80;99.90;;;;;;5077053;28;20127;-74
2023/03/02 09:41:16;;;;;;;19.70;10.63;;;2.80;99.90;;;;;;5076075;28;20079;-75
2023/03/02 09:43:50;;;;;;;19.58;10.70;;;2.80;99.90;;;;;;5077283;28;20496;-74
2023/03/02 09:46:24;;;;;;;19.40;10.43;;;2.90;99.90;;;;;;5075501;28;20051;-74
2023/03/02 09:49:19;;;;;;;18.73;11.13;;;2.90;99.90;;;;;;5078030;28;20507;-75
2023/03/02 09:52:07;;;;;;;18.35;10.88;;;3.00;99.90;;;;;;5075324;28;20051;-75
2023/03/02 09:54:36;;;;;;;18.45;10.45;;;3.10;99.90;;;;;;5067141;28;20074;-75
2023/03/02 09:57:03;;;;;;;17.95;10.77;;;3.00;99.90;;;;;;5077938;28;20052;-75
2023/03/02 09:59:40;;;;;;;17.58;10.88;;;3.10;99.90;;;;;;5076290;28;20044;-75
2023/03/02 10:02:48;;;;;;;19.95;11.43;;;3.30;99.90;;;;;;5060225;28;20067;-75
2023/03/02 10:05:21;;;;;;;17.63;9.68;;;3.20;99.90;;;;;;5028141;28;20057;-75
2023/03/02 10:07:47;;;;;;;17.15;10.95;;;3.30;99.90;;;;;;5037742;28;20033;-75
2023/03/02 10:10:25;;;;;;;22.30;11.77;;;3.40;99.90;;;;;;5047917;28;20057;-75
2023/03/02 10:12:56;;;;;;;18.40;10.68;;;3.40;99.90;;;;;;5056638;28;20041;-75
2023/03/02 10:15:30;;;;;;;19.20;11.10;;;3.50;99.90;;;;;;5056718;28;20045;-75
2023/03/02 10:17:56;;;;;;;19.33;10.70;;;2.90;99.90;;;;;;5057291;28;20049;-75
2023/03/02 10:21:14;;;;;;;21.05;11.48;;;3.60;99.90;;;;;;5056027;28;20126;-76
2023/03/02 10:23:51;;;;;;;;;;;3.70;99.90;;;;;;5055228;28;20090;-75
2023/03/02 10:26:26;;;;;;;;;;;3.70;99.90;;;;;;5057775;28;19975;-75
2023/03/02 10:29:05;;;;;;;20.13;10.32;;;3.80;99.90;;;;;;5067596;28;19920;-77
2023/03/02 10:31:32;;;;;;;20.15;11.15;;;3.80;99.90;;;;;;5077526;28;20428;-75
2023/03/02 10:33:59;;;;;;;19.08;11.00;;;3.90;99.90;;;;;;5075583;28;20799;-75
2023/03/02 10:36:26;;;;;;;19.80;10.85;;;4.00;99.90;;;;;;5075020;28;20049;-75
2023/03/02 10:38:53;;;;;;;21.23;12.18;;;4.00;99.90;;;;;;5074997;28;20055;-75
2023/03/02 10:41:35;;;;;;;22.27;11.93;;;4.00;99.90;;;;;;5076231;28;20094;-75
2023/03/02 10:44:19;;;;;;;19.85;12.45;;;4.00;99.90;;;;;;5077003;28;20083;-75
2023/03/02 10:46:46;;;;;;;20.77;11.15;;;4.00;99.90;;;;;;5075137;28;20073;-75
2023/03/02 10:49:28;;;;;;;18.63;10.82;;;4.00;99.90;;;;;;5076825;28;20074;-75
2023/03/02 10:52:11;;;;;;;18.00;10.70;;;4.00;99.90;;;;;;5076027;28;20135;-75
2023/03/02 10:54:37;;;;;;;17.95;10.57;;;4.10;99.90;;;;;;5075364;28;20108;-75
2023/03/02 10:57:21;;;;;;;18.80;11.15;;;4.00;99.90;;;;;;5077033;28;20090;-75
2023/03/02 10:59:50;;;;;;;17.10;10.15;;;4.00;99.90;;;;;;5074919;28;20121;-75
2023/03/02 11:02:26;;;;;;;17.95;10.70;;;4.00;99.90;;;;;;5075947;28;20137;-76
2023/03/02 11:05:15;;;;;;;19.30;10.48;;;4.00;99.90;;;;;;5075757;28;20056;-75
2023/03/02 11:07:51;;;;;;;16.45;10.45;;;4.00;99.90;;;;;;5073973;28;20048;-76
2023/03/02 11:10:38;;;;;;;18.35;10.43;;;4.00;99.90;;;;;;5077242;28;20045;-76
2023/03/02 11:13:25;;;;;;;;;;;4.00;99.90;;;;;;5060091;28;20051;-75
2023/03/02 11:15:53;;;;;;;15.60;9.80;;;4.00;99.90;;;;;;5075501;28;19922;-76
2023/03/02 11:18:31;;;;;;;17.50;10.23;;;4.00;99.90;;;;;;5076979;28;20049;-77
2023/03/02 11:21:03;;;;;;;18.25;9.80;;;4.10;99.90;;;;;;5074619;28;20052;-76
2023/03/02 11:23:51;;;;;;;17.35;10.73;;;4.20;99.90;;;;;;5076632;28;20048;-76
2023/03/02 11:26:22;;;;;;;17.10;10.00;;;4.20;99.90;;;;;;5076020;28;20044;-76
2023/03/02 11:29:15;;;;;;;20.83;11.55;;;4.30;99.90;;;;;;5059949;28;20045;-76
2023/03/02 11:31:49;;;;;;;17.08;10.57;;;4.40;99.90;;;;;;5057224;28;20049;-75
2023/03/02 11:34:47;;;;;;;17.30;10.48;;;4.40;99.90;;;;;;5070364;28;20112;-75
2023/03/02 11:37:13;;;;;;;18.08;10.50;;;4.40;99.90;;;;;;5051516;28;20049;-75
2023/03/02 11:39:47;;;;;;;18.30;10.40;;;4.40;99.90;;;;;;5076630;28;20129;-76
2023/03/02 11:42:35;;;;;;;16.73;10.27;;;4.50;99.90;;;;;;5074655;28;20919;-75
2023/03/02 11:45:13;;;;;;;19.85;11.75;;;4.60;99.90;;;;;;5076138;28;20048;-75
2023/03/02 11:47:54;;;;;;;19.90;10.77;;;4.60;99.90;;;;;;5075881;28;20476;-75
2023/03/02 11:50:21;;;;;;;17.30;10.43;;;4.70;99.90;;;;;;5058336;28;20044;-76
2023/03/02 11:52:56;;;;;;;17.75;10.52;;;4.70;99.90;;;;;;5059622;28;20088;-76
2023/03/02 11:55:24;;;;;;;17.73;10.20;;;4.80;99.90;;;;;;5074899;28;20072;-75
2023/03/02 11:57:58;;;;;;;18.58;10.65;;;4.80;99.90;;;;;;5056742;28;20073;-80
2023/03/02 12:00:32;;;;;;;16.33;9.70;;;4.80;99.90;;;;;;5055508;28;20075;-75
2023/03/02 12:03:17;;;;;;;16.88;10.85;;;4.80;99.90;;;;;;5049381;28;20063;-75
2023/03/02 12:05:52;;;;;;;18.52;11.00;;;4.90;99.90;;;;;;5079726;28;20166;-75
2023/03/02 12:08:17;;;;;;;19.83;10.80;;;5.00;99.90;;;;;;5059731;28;20041;-75
2023/03/02 12:10:59;;;;;;;18.92;11.00;;;5.00;99.90;;;;;;5059867;28;20052;-75
2023/03/02 12:13:47;;;;;;;18.38;10.82;;;5.10;99.90;;;;;;5059331;28;20071;-75
2023/03/02 12:16:56;;;;;;;19.83;10.98;;;5.00;99.90;;;;;;5056616;28;20057;-75
2023/03/02 12:19:28;;;;;;;17.75;10.63;;;5.00;99.90;;;;;;5041461;28;20045;-76
2023/03/02 12:22:00;;;;;;;18.55;10.48;;;5.00;99.90;;;;;;5054810;28;20053;-75
2023/03/02 12:24:34;;;;;;;18.92;10.88;;;5.10;99.90;;;;;;5058697;28;20094;-75
2023/03/02 12:27:24;;;;;;;17.48;10.25;;;5.00;99.90;;;;;;5060113;28;20154;-75
2023/03/02 12:30:23;;;;;;;19.45;10.95;;;5.00;99.90;;;;;;5058111;28;20075;-75
2023/03/02 12:33:09;;;;;;;16.55;9.77;;;5.00;99.90;;;;;;5050161;28;20107;-75
2023/03/02 12:35:35;;;;;;;18.00;10.15;;;5.00;99.90;;;;;;5080013;28;20076;-75
2023/03/02 12:38:27;;;;;;;19.10;10.98;;;4.90;99.90;;;;;;5077648;28;20071;-75
2023/03/02 12:41:11;;;;;;;19.63;10.15;;;5.00;99.90;;;;;;5079041;28;20053;-75
2023/03/02 12:43:46;;;;;;;18.67;9.98;;;5.00;99.90;;;;;;5061969;28;20055;-75
2023/03/02 12:46:26;;;;;;;18.15;10.30;;;5.00;99.90;;;;;;5077375;28;20048;-75
2023/03/02 12:49:16;;;;;;;15.07;8.90;;;5.00;99.90;;;;;;5096408;28;20040;-75
2023/03/02 12:51:48;;;;;;;19.05;10.60;;;4.90;99.90;;;;;;5098729;28;20075;-75
2023/03/02 12:54:23;;;;;;;17.02;10.13;;;5.00;99.90;;;;;;5098046;28;20047;-76